Time;durP1;ratioP1;P1;durP2;ratioP2;P2;SDS_P1;SDS_P2;PMS_P1;PMS_P2;Temp;Humidity;BMP_temperature;BMP_pressure;BME280_temperature;BME280_humidity;BME280_pressure;Samples;Min_cycle;Max_cycle;Signal;HPM_P1;HPM_P2
2021/09/12 00:00:30;;;;;;;0.40;0.10;;;;;;;20.65;64.64;100337.76;112009;1197;139130;-72
2021/09/12 00:02:57;;;;;;;0.40;0.10;;;;;;;20.60;64.88;100340.66;112215;1197;94803;-72
2021/09/12 00:05:25;;;;;;;0.40;0.10;;;;;;;20.55;65.04;100339.90;112242;1197;94857;-73
2021/09/12 00:07:51;;;;;;;0.40;0.10;;;;;;;20.54;65.25;100339.75;112150;1199;139028;-73
2021/09/12 00:10:18;;;;;;;0.40;0.10;;;;;;;20.50;65.56;100336.86;112444;1204;94930;-73
2021/09/12 00:12:45;;;;;;;0.40;0.10;;;;;;;20.42;65.59;100334.84;112263;1198;137420;-73
2021/09/12 00:15:12;;;;;;;0.40;0.10;;;;;;;20.33;65.78;100333.11;112366;1198;95274;-73
2021/09/12 00:17:39;;;;;;;0.40;0.00;;;;;;;20.37;65.58;100334.46;112375;1198;94938;-73
2021/09/12 00:20:07;;;;;;;0.40;0.00;;;;;;;20.42;65.37;100342.80;112235;1198;138177;-74
2021/09/12 00:22:33;;;;;;;0.40;0.00;;;;;;;20.47;65.14;100344.58;112766;1197;95507;-73
2021/09/12 00:25:00;;;;;;;0.40;0.10;;;;;;;20.49;65.09;100347.52;112074;1205;138042;-73
2021/09/12 00:27:27;;;;;;;0.40;0.10;;;;;;;20.43;65.24;100344.31;112368;1198;94850;-73
2021/09/12 00:29:56;;;;;;;0.40;0.10;;;;;;;20.42;65.33;100342.80;112269;1198;138228;-73
2021/09/12 00:32:26;;;;;;;0.40;0.10;;;;;;;20.45;65.15;100340.96;112414;1198;94840;-73
2021/09/12 00:34:52;;;;;;;0.40;0.10;;;;;;;20.44;65.38;100338.71;112255;1198;108558;-73
2021/09/12 00:37:19;;;;;;;0.40;0.00;;;;;;;20.44;65.37;100340.30;112259;1205;139307;-73
2021/09/12 00:39:45;;;;;;;0.40;0.00;;;;;;;20.41;65.26;100342.33;112369;1204;95389;-73
2021/09/12 00:42:12;;;;;;;0.40;0.00;;;;;;;20.48;65.15;100342.70;112337;1205;139645;-73
2021/09/12 00:44:38;;;;;;;0.40;0.00;;;;;;;20.44;65.36;100341.55;112285;1206;94831;-73
2021/09/12 00:47:11;;;;;;;0.40;0.10;;;;;;;20.41;65.39;100340.01;112389;1204;108730;-73
2021/09/12 00:49:38;;;;;;;0.40;0.10;;;;;;;20.39;65.32;100340.63;112116;1205;139865;-73
2021/09/12 00:52:12;;;;;;;0.40;0.10;;;;;;;20.42;65.12;100343.14;113816;1197;93115;-74
2021/09/12 00:54:39;;;;;;;0.40;0.00;;;;;;;20.51;64.72;100343.79;113606;1197;139145;-74
2021/09/12 00:57:09;;;;;;;0.40;0.10;;;;;;;20.47;64.92;100338.67;113771;1197;108465;-74
2021/09/12 00:59:38;;;;;;;0.40;0.10;;;;;;;20.40;65.33;100335.38;113651;1197;108973;-74
2021/09/12 01:02:06;;;;;;;0.40;0.10;;;;;;;20.38;65.24;100336.34;112741;1197;139254;-75
2021/09/12 01:04:35;;;;;;;0.40;0.10;;;;;;;20.33;65.63;100331.48;112292;1197;94818;-75
2021/09/12 01:07:04;;;;;;;0.40;0.00;;;;;;;20.26;65.83;100335.02;113497;1198;137620;-75
2021/09/12 01:09:33;;;;;;;0.40;0.00;;;;;;;20.18;65.74;100335.95;112303;1197;109472;-74
2021/09/12 01:12:01;;;;;;;0.40;0.10;;;;;;;20.16;65.94;100336.98;112254;1200;138410;-77
2021/09/12 01:14:29;;;;;;;0.40;0.10;;;;;;;20.15;65.99;100336.52;112378;1198;94910;-74
2021/09/12 01:16:58;;;;;;;0.40;0.00;;;;;;;20.17;65.85;100333.83;112202;1199;108962;-75
2021/09/12 01:19:24;;;;;;;0.40;0.10;;;;;;;20.15;66.03;100334.36;112303;1205;138613;-75
2021/09/12 01:21:56;;;;;;;0.40;0.10;;;;;;;20.07;65.81;100334.33;112274;1198;94813;-76
2021/09/12 01:24:27;;;;;;;0.40;0.10;;;;;;;20.04;66.06;100336.16;112147;1201;138354;-76
2021/09/12 01:26:53;;;;;;;0.40;0.10;;;;;;;20.01;65.99;100338.50;112235;1205;108586;-76
2021/09/12 01:29:20;;;;;;;0.40;0.10;;;;;;;20.00;66.00;100335.33;112287;1200;94775;-77
2021/09/12 01:31:47;;;;;;;0.40;0.10;;;;;;;20.00;65.83;100338.01;112193;1198;137487;-75
2021/09/12 01:34:14;;;;;;;0.40;0.10;;;;;;;19.99;66.06;100337.38;112257;1201;94969;-75
2021/09/12 01:36:41;;;;;;;0.40;0.10;;;;;;;19.92;66.25;100335.69;112253;1197;139203;-75
2021/09/12 01:39:07;;;;;;;0.40;0.10;;;;;;;19.94;66.37;100330.36;112276;1205;94853;-76
2021/09/12 01:41:34;;;;;;;0.40;0.10;;;;;;;19.93;66.07;100332.70;112324;1205;108924;-76
2021/09/12 01:44:03;;;;;;;0.40;0.10;;;;;;;19.95;65.96;100333.84;112260;1201;137988;-75
2021/09/12 01:46:30;;;;;;;0.40;0.10;;;;;;;19.87;66.10;100329.14;112325;1197;96026;-75
2021/09/12 01:49:02;;;;;;;0.40;0.10;;;;;;;19.79;66.45;100324.25;112199;1205;138057;-77
2021/09/12 01:51:29;;;;;;;0.40;0.10;;;;;;;19.78;66.13;100318.55;113701;1197;108733;-75
2021/09/12 01:53:56;;;;;;;0.40;0.10;;;;;;;19.73;66.11;100313.48;113333;1198;159554;-75
2021/09/12 01:56:23;;;;;;;0.40;0.10;;;;;;;19.76;66.25;100317.62;112295;1201;95538;-74
2021/09/12 01:58:49;;;;;;;0.40;0.10;;;;;;;19.85;65.78;100316.45;112236;1197;94787;-76
2021/09/12 02:01:16;;;;;;;0.40;0.10;;;;;;;20.00;64.92;100322.70;112381;1204;138195;-75
2021/09/12 02:03:43;;;;;;;0.40;0.10;;;;;;;20.08;64.88;100321.63;112249;1204;109383;-76
2021/09/12 02:06:10;;;;;;;0.40;0.10;;;;;;;20.06;64.75;100321.77;112259;1198;138116;-76
2021/09/12 02:08:37;;;;;;;0.40;0.10;;;;;;;20.01;64.90;100326.84;112075;1200;94921;-75
2021/09/12 02:11:03;;;;;;;0.40;0.10;;;;;;;19.98;64.78;100329.34;112389;1198;94842;-75
2021/09/12 02:13:30;;;;;;;0.40;0.10;;;;;;;19.89;64.97;100328.48;112226;1197;137647;-76
2021/09/12 02:15:57;;;;;;;0.40;0.10;;;;;;;19.78;65.20;100326.30;112179;1197;95429;-77
2021/09/12 02:18:24;;;;;;;0.40;0.10;;;;;;;19.70;65.51;100325.36;112251;1198;139135;-77
2021/09/12 02:20:51;;;;;;;0.40;0.10;;;;;;;19.62;65.73;100321.21;112145;1201;96140;-75
2021/09/12 02:23:17;;;;;;;0.40;0.10;;;;;;;19.60;65.82;100316.86;112367;1198;94946;-75
2021/09/12 02:25:44;;;;;;;0.40;0.10;;;;;;;19.51;65.96;100312.77;112230;1198;137360;-75
2021/09/12 02:28:11;;;;;;;0.40;0.10;;;;;;;19.42;66.39;100313.73;112157;1198;94823;-76
2021/09/12 02:30:38;;;;;;;0.40;0.10;;;;;;;19.49;66.22;100317.58;112032;1200;138698;-74
2021/09/12 02:33:05;;;;;;;0.40;0.10;;;;;;;19.51;66.27;100314.57;112378;1201;94894;-75
2021/09/12 02:35:32;;;;;;;0.40;0.10;;;;;;;19.47;66.53;100313.04;112318;1198;94892;-78
2021/09/12 02:37:58;;;;;;;0.40;0.10;;;;;;;19.46;66.57;100313.09;112001;1207;138300;-77
2021/09/12 02:40:25;;;;;;;0.40;0.10;;;;;;;19.50;66.63;100316.55;112130;1199;94888;-75
2021/09/12 02:42:52;;;;;;;0.40;0.10;;;;;;;19.50;66.57;100321.10;112200;1205;138803;-76
2021/09/12 02:45:19;;;;;;;0.40;0.10;;;;;;;19.40;66.95;100316.32;112270;1198;94892;-75
2021/09/12 02:47:46;;;;;;;0.40;0.10;;;;;;;19.46;66.84;100322.26;112327;1205;95342;-76
2021/09/12 02:50:12;;;;;;;0.40;0.10;;;;;;;19.53;66.71;100321.05;112262;1198;137390;-75
2021/09/12 02:52:39;;;;;;;0.40;0.10;;;;;;;19.46;67.07;100321.02;112219;1197;94839;-76
2021/09/12 02:55:07;;;;;;;0.40;0.10;;;;;;;19.38;66.89;100323.52;112312;1197;138638;-76
2021/09/12 02:57:34;;;;;;;0.40;0.10;;;;;;;19.43;66.92;100324.63;112259;1198;94858;-76
2021/09/12 03:00:00;;;;;;;0.40;0.10;;;;;;;19.45;66.95;100318.19;112307;1205;137951;-75
2021/09/12 03:02:28;;;;;;;0.40;0.10;;;;;;;19.40;67.11;100326.27;112242;1199;95151;-76
2021/09/12 03:04:55;;;;;;;0.40;0.10;;;;;;;19.41;67.16;100324.90;112478;1205;94798;-76
2021/09/12 03:07:21;;;;;;;0.40;0.10;;;;;;;19.45;67.02;100322.48;112308;1198;138236;-75
2021/09/12 03:09:48;;;;;;;0.40;0.10;;;;;;;19.49;66.83;100324.21;112413;1199;94800;-75
2021/09/12 03:12:15;;;;;;;0.40;0.10;;;;;;;19.47;66.85;100321.83;112400;1203;138128;-75
2021/09/12 03:14:42;;;;;;;0.40;0.10;;;;;;;19.45;66.90;100326.65;112426;1198;96179;-76
2021/09/12 03:17:09;;;;;;;0.40;0.10;;;;;;;19.47;66.98;100325.61;112433;1204;95294;-76
2021/09/12 03:19:36;;;;;;;0.40;0.10;;;;;;;19.50;67.01;100325.24;112259;1203;138379;-77
2021/09/12 03:22:04;;;;;;;0.40;0.10;;;;;;;19.50;66.86;100321.61;112397;1198;96169;-76
2021/09/12 03:24:31;;;;;;;0.40;0.10;;;;;;;19.48;67.02;100325.38;112324;1198;138458;-78
2021/09/12 03:26:57;;;;;;;0.40;0.10;;;;;;;19.41;67.18;100325.11;112408;1198;94910;-77
2021/09/12 03:29:24;;;;;;;0.40;0.10;;;;;;;19.32;67.35;100330.73;112386;1198;95173;-77
2021/09/12 03:31:51;;;;;;;0.40;0.10;;;;;;;19.27;67.42;100334.27;112303;1199;138531;-77
2021/09/12 03:34:18;;;;;;;0.40;0.10;;;;;;;19.25;67.54;100334.08;112463;1198;94805;-77
2021/09/12 03:36:46;;;;;;;0.40;0.10;;;;;;;19.24;67.41;100339.19;112305;1204;137272;-76
2021/09/12 03:39:12;;;;;;;0.40;0.10;;;;;;;19.24;67.29;100340.41;112393;1205;94981;-77
2021/09/12 03:41:39;;;;;;;0.40;0.10;;;;;;;19.23;67.40;100339.94;112384;1205;94895;-77
2021/09/12 03:44:06;;;;;;;0.40;0.10;;;;;;;19.18;67.36;100336.81;112283;1203;138188;-78
2021/09/12 03:46:32;;;;;;;0.40;0.10;;;;;;;19.15;67.43;100337.36;112468;1197;94797;-76
2021/09/12 03:48:59;;;;;;;0.40;0.10;;;;;;;19.12;67.58;100338.80;112317;1198;138471;-75
2021/09/12 03:51:26;;;;;;;0.40;0.10;;;;;;;19.12;67.66;100340.27;112474;1198;95609;-77
2021/09/12 03:53:52;;;;;;;0.40;0.10;;;;;;;19.15;67.57;100338.11;112328;1199;94841;-77
2021/09/12 03:56:19;;;;;;;0.40;0.10;;;;;;;19.22;67.26;100337.48;112207;1198;138300;-77
2021/09/12 03:58:46;;;;;;;0.40;0.10;;;;;;;19.25;67.39;100337.98;112346;1199;95362;-76
2021/09/12 04:01:12;;;;;;;0.40;0.10;;;;;;;19.18;67.45;100332.83;112322;1203;137875;-76
2021/09/12 04:03:39;;;;;;;0.40;0.10;;;;;;;19.02;67.79;100333.13;112418;1205;94851;-78
2021/09/12 04:06:06;;;;;;;0.40;0.10;;;;;;;18.95;67.95;100334.46;112200;1201;138274;-77
2021/09/12 04:08:34;;;;;;;0.40;0.10;;;;;;;19.09;67.64;100337.19;112284;1198;94927;-78
2021/09/12 04:11:00;;;;;;;0.40;0.10;;;;;;;19.16;67.31;100338.19;113770;1197;93091;-76
2021/09/12 04:13:28;;;;;;;0.40;0.10;;;;;;;19.24;67.20;100343.31;113545;1198;137457;-76
2021/09/12 04:15:54;;;;;;;0.40;0.10;;;;;;;19.28;67.05;100340.48;112550;1198;95824;-76
2021/09/12 04:18:21;;;;;;;0.40;0.10;;;;;;;19.28;67.12;100339.27;112419;1205;138887;-77
2021/09/12 04:20:47;;;;;;;0.40;0.10;;;;;;;19.34;66.77;100343.35;112501;1198;109965;-76
2021/09/12 04:23:14;;;;;;;0.40;0.10;;;;;;;19.31;67.06;100343.72;112248;1201;94862;-75
2021/09/12 04:25:41;;;;;;;0.40;0.10;;;;;;;19.38;66.77;100346.36;112349;1198;137700;-76
2021/09/12 04:28:07;;;;;;;0.40;0.10;;;;;;;19.38;66.77;100350.32;112393;1199;94869;-75
2021/09/12 04:30:34;;;;;;;0.40;0.10;;;;;;;19.37;66.50;100351.46;112430;1199;138308;-76
2021/09/12 04:33:01;;;;;;;0.40;0.10;;;;;;;19.35;66.82;100351.21;112434;1205;109987;-76
2021/09/12 04:35:27;;;;;;;0.40;0.10;;;;;;;19.35;66.82;100353.90;112419;1198;95647;-75
2021/09/12 04:37:54;;;;;;;0.40;0.10;;;;;;;19.43;66.60;100354.69;112151;1198;138684;-75
2021/09/12 04:40:21;;;;;;;0.40;0.10;;;;;;;19.50;66.30;100350.27;112334;1199;95424;-76
2021/09/12 04:42:47;;;;;;;0.40;0.10;;;;;;;19.48;66.90;100348.42;112383;1205;137863;-75
2021/09/12 04:45:15;;;;;;;0.40;0.10;;;;;;;19.43;67.00;100346.19;112344;1199;109520;-77
2021/09/12 04:47:41;;;;;;;0.40;0.10;;;;;;;19.33;67.41;100349.70;112379;1206;95352;-76
2021/09/12 04:50:08;;;;;;;0.40;0.10;;;;;;;19.31;67.57;100348.27;112273;1203;138763;-75
2021/09/12 04:52:35;;;;;;;0.40;0.10;;;;;;;19.32;67.63;100351.02;112332;1206;95037;-77
2021/09/12 04:55:02;;;;;;;0.40;0.10;;;;;;;19.44;67.47;100350.66;112329;1199;138063;-77
2021/09/12 04:57:28;;;;;;;0.40;0.10;;;;;;;19.45;67.28;100350.79;112465;1198;94894;-76
2021/09/12 04:59:55;;;;;;;0.40;0.10;;;;;;;19.40;67.69;100352.38;112365;1203;94878;-76
2021/09/12 05:02:22;;;;;;;0.40;0.10;;;;;;;19.34;67.82;100350.36;112315;1199;137913;-75
2021/09/12 05:04:49;;;;;;;0.40;0.10;;;;;;;19.37;67.83;100355.75;112325;1199;94888;-75
2021/09/12 05:07:16;;;;;;;0.40;0.10;;;;;;;19.48;67.66;100350.39;112214;1203;138035;-75
2021/09/12 05:09:42;;;;;;;0.40;0.10;;;;;;;19.64;67.25;100353.48;112367;1198;94954;-76
2021/09/12 05:12:09;;;;;;;0.40;0.10;;;;;;;19.68;67.11;100353.59;112286;1203;138577;-76
2021/09/12 05:14:36;;;;;;;0.40;0.10;;;;;;;19.75;66.93;100355.84;112439;1198;94816;-76
2021/09/12 05:17:03;;;;;;;0.40;0.10;;;;;;;19.85;66.66;100348.77;112383;1205;94962;-75
2021/09/12 05:19:29;;;;;;;0.40;0.10;;;;;;;19.88;66.37;100349.45;112280;1198;137965;-75
2021/09/12 05:21:56;;;;;;;0.40;0.10;;;;;;;19.86;66.73;100349.23;112205;1203;95391;-75
2021/09/12 05:24:23;;;;;;;0.40;0.10;;;;;;;19.86;66.69;100349.77;112243;1205;139328;-74
2021/09/12 05:26:49;;;;;;;0.40;0.10;;;;;;;19.91;66.96;100355.21;112429;1199;94865;-78
2021/09/12 05:29:18;;;;;;;0.40;0.10;;;;;;;19.85;67.05;100352.70;112360;1203;108423;-77
2021/09/12 05:31:44;;;;;;;0.40;0.10;;;;;;;19.91;67.13;100351.24;112320;1205;137944;-77
2021/09/12 05:34:11;;;;;;;0.40;0.10;;;;;;;19.95;67.16;100353.16;112411;1198;97166;-75
2021/09/12 05:36:38;;;;;;;0.40;0.00;;;;;;;19.97;67.13;100352.45;112319;1198;138451;-76
2021/09/12 05:39:04;;;;;;;0.40;0.10;;;;;;;20.01;67.04;100352.91;112340;1199;94833;-75
2021/09/12 05:41:31;;;;;;;0.40;0.10;;;;;;;20.14;66.75;100351.72;112498;1199;95326;-76
2021/09/12 05:43:58;;;;;;;0.40;0.10;;;;;;;20.17;66.74;100346.29;112243;1205;137513;-75
2021/09/12 05:46:25;;;;;;;0.40;0.10;;;;;;;20.13;66.73;100352.83;112423;1199;96219;-75
2021/09/12 05:48:52;;;;;;;0.40;0.10;;;;;;;20.10;66.89;100350.02;112217;1198;138072;-77
2021/09/12 05:51:19;;;;;;;0.40;0.10;;;;;;;20.14;67.08;100346.98;112344;1199;94884;-76
2021/09/12 05:53:45;;;;;;;0.40;0.10;;;;;;;20.23;66.98;100342.84;112330;1198;95285;-75
2021/09/12 05:56:12;;;;;;;0.40;0.10;;;;;;;20.25;67.02;100340.72;112395;1205;137530;-74
2021/09/12 05:58:38;;;;;;;0.40;0.10;;;;;;;20.30;66.92;100340.02;112293;1198;95316;-74
2021/09/12 06:01:05;;;;;;;0.40;0.10;;;;;;;20.33;66.91;100336.19;112232;1198;139005;-75
2021/09/12 06:03:32;;;;;;;0.40;0.10;;;;;;;20.41;66.69;100341.40;112420;1197;94847;-75
2021/09/12 06:05:59;;;;;;;0.40;0.10;;;;;;;20.51;66.51;100345.03;112391;1198;94803;-76
2021/09/12 06:08:25;;;;;;;0.40;0.10;;;;;;;20.55;66.56;100343.33;112193;1198;138659;-75
2021/09/12 06:10:52;;;;;;;0.40;0.10;;;;;;;20.57;66.50;100345.35;112463;1199;95457;-75
2021/09/12 06:13:19;;;;;;;0.40;0.00;;;;;;;20.65;66.37;100349.15;112185;1205;138622;-77
2021/09/12 06:15:45;;;;;;;0.40;0.10;;;;;;;20.72;66.53;100350.48;112331;1198;94911;-78
2021/09/12 06:18:12;;;;;;;0.40;0.00;;;;;;;20.69;66.66;100351.56;112311;1199;138009;-74
2021/09/12 06:20:39;;;;;;;0.40;0.00;;;;;;;20.68;66.73;100352.21;112425;1198;94884;-75
2021/09/12 06:23:05;;;;;;;0.40;0.10;;;;;;;20.68;66.73;100355.41;112414;1199;94899;-76
2021/09/12 06:25:32;;;;;;;0.40;0.10;;;;;;;20.73;66.94;100351.35;112325;1205;138686;-76
2021/09/12 06:28:01;;;;;;;0.40;0.00;;;;;;;20.78;66.82;100351.33;112343;1199;107159;-76
2021/09/12 06:30:28;;;;;;;0.40;0.00;;;;;;;20.77;66.84;100358.33;112204;1199;138257;-74
2021/09/12 06:32:55;;;;;;;0.40;0.10;;;;;;;20.72;66.94;100359.50;112329;1203;94922;-75
2021/09/12 06:35:21;;;;;;;0.40;0.10;;;;;;;20.76;67.18;100361.59;112410;1198;95351;-76
2021/09/12 06:37:48;;;;;;;0.40;0.10;;;;;;;20.89;67.07;100360.51;112170;1199;138784;-77
2021/09/12 06:40:16;;;;;;;0.40;0.00;;;;;;;20.96;66.76;100359.08;112380;1206;94821;-76
2021/09/12 06:42:43;;;;;;;0.40;0.00;;;;;;;20.99;66.63;100358.39;112330;1198;137538;-75
2021/09/12 06:45:10;;;;;;;0.40;0.00;;;;;;;20.97;66.58;100363.54;112316;1205;95373;-75
2021/09/12 06:47:37;;;;;;;0.40;0.00;;;;;;;20.94;66.65;100366.65;112268;1207;96783;-75
2021/09/12 06:50:04;;;;;;;0.40;0.10;;;;;;;20.98;66.71;100369.10;112246;1199;138058;-76
2021/09/12 06:52:32;;;;;;;0.40;0.00;;;;;;;21.00;66.68;100368.23;113222;1198;94794;-74
2021/09/12 06:54:59;;;;;;;0.40;0.10;;;;;;;21.08;66.80;100371.66;112309;1202;137516;-73
2021/09/12 06:57:30;;;;;;;0.40;0.00;;;;;;;21.19;66.56;100377.56;112402;1199;95408;-75
2021/09/12 06:59:57;;;;;;;0.40;0.10;;;;;;;21.25;66.56;100377.88;112272;1203;95186;-76
2021/09/12 07:02:24;;;;;;;0.40;0.10;;;;;;;21.29;66.44;100381.38;112256;1203;137473;-73
2021/09/12 07:04:51;;;;;;;0.40;0.00;;;;;;;21.36;66.11;100381.76;112410;1203;94903;-75
2021/09/12 07:07:17;;;;;;;0.40;0.10;;;;;;;21.41;66.27;100378.65;112320;1199;137375;-75
2021/09/12 07:09:44;;;;;;;0.40;0.10;;;;;;;21.56;66.19;100379.65;112437;1199;94897;-75
2021/09/12 07:12:11;;;;;;;0.40;0.00;;;;;;;21.67;65.99;100377.91;112300;1198;138992;-76
2021/09/12 07:14:41;;;;;;;0.40;0.10;;;;;;;21.78;65.74;100375.13;112341;1198;109445;-76
2021/09/12 07:17:08;;;;;;;0.40;0.10;;;;;;;21.83;65.48;100374.38;112409;1203;95574;-74
2021/09/12 07:19:35;;;;;;;0.40;0.00;;;;;;;21.82;65.52;100369.98;112213;1198;137805;-74
2021/09/12 07:22:01;;;;;;;0.40;0.00;;;;;;;21.91;65.30;100377.96;112321;1199;95366;-74
2021/09/12 07:24:28;;;;;;;0.40;0.00;;;;;;;22.01;65.32;100379.77;112283;1198;138950;-74
2021/09/12 07:26:56;;;;;;;0.40;0.10;;;;;;;22.09;64.92;100372.48;112417;1199;94919;-75
2021/09/12 07:29:22;;;;;;;0.40;0.10;;;;;;;22.12;65.01;100373.13;112399;1199;94821;-76
2021/09/12 07:31:49;;;;;;;0.40;0.00;;;;;;;22.16;64.80;100378.47;112272;1199;138535;-74
2021/09/12 07:34:16;;;;;;;0.40;0.00;;;;;;;22.19;64.74;100375.85;112323;1198;94812;-73
2021/09/12 07:36:43;;;;;;;0.40;0.10;;;;;;;22.33;64.64;100376.79;112170;1198;137996;-74
2021/09/12 07:39:10;;;;;;;0.40;0.10;;;;;;;22.42;64.64;100375.46;112301;1205;95012;-74
2021/09/12 07:41:37;;;;;;;0.40;0.10;;;;;;;22.51;64.22;100375.33;112285;1198;95311;-74
2021/09/12 07:44:03;;;;;;;0.40;0.00;;;;;;;22.57;64.11;100378.49;112230;1198;138427;-75
2021/09/12 07:46:30;;;;;;;0.40;0.00;;;;;;;22.65;63.96;100378.55;112360;1199;108028;-75
2021/09/12 07:48:57;;;;;;;0.40;0.00;;;;;;;22.77;63.89;100382.19;112272;1199;137147;-74
2021/09/12 07:51:27;;;;;;;0.40;0.00;;;;;;;22.77;63.58;100381.27;112303;1205;94826;-74
2021/09/12 07:53:53;;;;;;;0.40;0.10;;;;;;;22.82;63.83;100380.13;112288;1198;97157;-74
2021/09/12 07:56:20;;;;;;;0.40;0.00;;;;;;;22.93;63.71;100380.16;112133;1198;137540;-74
2021/09/12 07:58:47;;;;;;;0.40;0.00;;;;;;;23.06;63.36;100382.80;112146;1203;95328;-74
2021/09/12 08:01:15;;;;;;;0.40;0.00;;;;;;;23.18;63.20;100383.86;112057;1203;137512;-74
2021/09/12 08:03:42;;;;;;;0.40;0.10;;;;;;;23.24;62.97;100384.85;112147;1198;94892;-75
2021/09/12 08:06:09;;;;;;;0.40;0.00;;;;;;;23.34;62.81;100386.10;112008;1198;138624;-75
2021/09/12 08:08:35;;;;;;;0.40;0.00;;;;;;;23.42;62.62;100387.45;112099;1198;94886;-76
2021/09/12 08:11:02;;;;;;;0.40;0.00;;;;;;;23.56;62.33;100384.50;112153;1203;94889;-77
2021/09/12 08:13:29;;;;;;;0.40;0.00;;;;;;;23.61;62.21;100386.22;112131;1199;137962;-78
2021/09/12 08:15:56;;;;;;;0.40;0.00;;;;;;;23.68;62.02;100387.99;112328;1199;95229;-75
2021/09/12 08:18:23;;;;;;;0.40;0.00;;;;;;;23.77;61.95;100384.97;111963;1198;138883;-75
2021/09/12 08:20:51;;;;;;;0.40;0.00;;;;;;;23.88;62.06;100387.30;112161;1197;108355;-75
2021/09/12 08:23:18;;;;;;;0.40;0.00;;;;;;;23.95;61.58;100386.80;112118;1199;94884;-75
2021/09/12 08:25:46;;;;;;;0.40;0.00;;;;;;;23.98;61.44;100387.95;111995;1197;137315;-74
2021/09/12 08:28:13;;;;;;;0.40;0.00;;;;;;;24.01;61.06;100385.91;112105;1199;94975;-75
2021/09/12 08:30:39;;;;;;;0.40;0.10;;;;;;;24.02;61.43;100384.95;111937;1198;138900;-75
2021/09/12 08:33:24;;;;;;;0.40;0.00;;;;;;;24.12;61.18;100387.88;112139;1205;94873;-75
2021/09/12 08:35:51;;;;;;;0.40;0.00;;;;;;;24.17;61.06;100390.70;112172;1202;94899;-75
2021/09/12 08:38:17;;;;;;;0.40;0.00;;;;;;;24.20;60.98;100391.79;112027;1198;137923;-74
2021/09/12 08:40:46;;;;;;;0.40;0.00;;;;;;;24.32;60.51;100395.13;112129;1198;94844;-74
2021/09/12 08:43:13;;;;;;;0.40;0.00;;;;;;;24.46;60.49;100392.28;111989;1198;137907;-75
2021/09/12 08:45:40;;;;;;;0.40;0.00;;;;;;;24.55;60.43;100390.44;112084;1199;94868;-74
2021/09/12 08:48:07;;;;;;;0.40;0.00;;;;;;;24.71;60.15;100381.90;112020;1203;138471;-75
2021/09/12 08:50:34;;;;;;;0.40;0.00;;;;;;;24.80;59.56;100383.08;111948;1198;95381;-74
2021/09/12 08:53:01;;;;;;;0.40;0.00;;;;;;;24.77;58.98;100382.42;112186;1203;94906;-74
2021/09/12 08:55:27;;;;;;;0.40;0.00;;;;;;;24.75;59.57;100382.62;112158;1198;138430;-74
2021/09/12 08:57:59;;;;;;;0.40;0.00;;;;;;;24.80;59.51;100381.98;112243;1198;95307;-74
2021/09/12 09:00:26;;;;;;;0.40;0.00;;;;;;;24.86;59.25;100380.91;111903;1198;138157;-74
2021/09/12 09:03:03;;;;;;;0.40;0.00;;;;;;;24.89;59.26;100377.23;112055;1199;95006;-74
2021/09/12 09:05:53;;;;;;;0.40;0.00;;;;;;;25.09;58.54;100375.45;112151;1198;94810;-75
2021/09/12 09:08:20;;;;;;;0.40;0.00;;;;;;;25.40;58.23;100378.98;112302;1204;137921;-74
2021/09/12 09:10:49;;;;;;;0.40;0.00;;;;;;;25.52;57.76;100379.86;112132;1198;94838;-75
2021/09/12 09:13:35;;;;;;;0.40;0.00;;;;;;;25.69;57.60;100377.48;112174;1198;137572;-74
2021/09/12 09:16:05;;;;;;;0.40;0.00;;;;;;;26.10;56.95;100375.56;112161;1199;94816;-75
2021/09/12 09:18:40;;;;;;;0.40;0.00;;;;;;;26.67;55.10;100376.45;112319;1198;139472;-76
2021/09/12 09:21:30;;;;;;;0.40;0.00;;;;;;;26.88;54.61;100371.99;112257;1198;108841;-75
2021/09/12 09:24:09;;;;;;;0.40;0.00;;;;;;;26.86;53.90;100371.24;112407;1198;114709;-75
2021/09/12 09:26:40;;;;;;;0.40;0.00;;;;;;;26.60;54.23;100375.13;112189;1198;138371;-75
2021/09/12 09:29:08;;;;;;;0.40;0.00;;;;;;;26.48;54.98;100374.20;112415;1198;94900;-74
2021/09/12 09:31:35;;;;;;;0.40;0.00;;;;;;;26.58;54.77;100373.53;112101;1198;138331;-77
2021/09/12 09:34:32;;;;;;;0.40;0.00;;;;;;;26.71;54.36;100367.55;112355;1199;109654;-76
2021/09/12 09:37:19;;;;;;;0.40;0.00;;;;;;;27.09;54.19;100364.47;112079;1198;138584;-76
2021/09/12 09:39:54;;;;;;;0.40;0.00;;;;;;;27.39;52.94;100363.40;112256;1198;93936;-76
2021/09/12 09:42:33;;;;;;;0.40;0.00;;;;;;;27.73;52.00;100359.92;112127;1198;137627;-76
2021/09/12 09:45:06;;;;;;;0.40;0.00;;;;;;;27.68;51.96;100361.30;112457;1198;108870;-77
2021/09/12 09:47:34;;;;;;;0.40;0.00;;;;;;;27.74;51.26;100362.60;112279;1198;95331;-75
2021/09/12 09:50:22;;;;;;;0.40;0.00;;;;;;;27.81;51.41;100362.23;113645;1197;137624;-76
2021/09/12 09:52:51;;;;;;;0.40;0.00;;;;;;;28.24;50.44;100358.81;113657;1198;108585;-77
2021/09/12 09:55:21;;;;;;;0.40;0.00;;;;;;;28.65;49.36;100355.62;113573;1198;138399;-76
2021/09/12 09:57:49;;;;;;;0.40;0.00;;;;;;;29.03;48.28;100350.70;113666;1197;93264;-77
2021/09/12 10:00:17;;;;;;;0.40;0.00;;;;;;;29.07;48.33;100350.48;113680;1198;137800;-76
2021/09/12 10:02:45;;;;;;;0.40;0.00;;;;;;;28.81;48.65;100346.13;113670;1198;98916;-77
2021/09/12 10:05:16;;;;;;;0.40;0.00;;;;;;;28.56;49.07;100347.76;112656;1198;109416;-76
2021/09/12 10:07:43;;;;;;;0.40;0.00;;;;;;;28.81;48.67;100340.21;111978;1201;137911;-76
2021/09/12 10:10:12;;;;;;;0.40;0.00;;;;;;;29.44;47.17;100342.23;112337;1198;95328;-76
2021/09/12 10:12:48;;;;;;;0.40;0.00;;;;;;;30.71;43.84;100342.68;111979;1197;137801;-75
2021/09/12 10:15:25;;;;;;;0.40;0.00;;;;;;;31.36;42.09;100339.77;112228;1206;99956;-78
2021/09/12 10:17:52;;;;;;;0.40;0.00;;;;;;;32.00;41.50;100338.70;112116;1198;94895;-75
2021/09/12 10:20:29;;;;;;;0.40;0.00;;;;;;;32.14;40.85;100340.82;112190;1203;137429;-75
2021/09/12 10:23:07;;;;;;;0.40;0.00;;;;;;;31.84;41.53;100345.44;112100;1203;99945;-75
2021/09/12 10:25:54;;;;;;;0.40;0.00;;;;;;;31.50;41.82;100342.83;112136;1197;137567;-75
2021/09/12 10:28:37;;;;;;;0.40;0.00;;;;;;;33.00;40.04;100335.32;112140;1198;94890;-75
2021/09/12 10:31:27;;;;;;;0.40;0.00;;;;;;;34.51;36.84;100328.76;112189;1198;137958;-75
2021/09/12 10:34:10;;;;;;;0.40;0.00;;;;;;;35.36;34.63;100329.94;112149;1198;99912;-75
2021/09/12 10:36:38;;;;;;;0.40;0.00;;;;;;;35.48;33.97;100332.47;112136;1203;137796;-73
2021/09/12 10:39:37;;;;;;;0.40;0.00;;;;;;;35.39;34.16;100332.08;111682;1198;94996;-76
2021/09/12 10:42:13;;;;;;;0.40;0.00;;;;;;;34.77;34.97;100329.55;113199;1198;94424;-75
2021/09/12 10:44:40;;;;;;;0.40;0.00;;;;;;;34.66;34.93;100326.59;113195;1197;138124;-75
2021/09/12 10:47:08;;;;;;;0.40;0.00;;;;;;;33.88;36.10;100322.14;113260;1197;94321;-75
2021/09/12 10:49:35;;;;;;;0.40;0.00;;;;;;;33.33;37.56;100316.97;113165;1198;137517;-76
2021/09/12 10:52:03;;;;;;;0.40;0.00;;;;;;;32.91;38.06;100315.90;113330;1197;94226;-75
2021/09/12 10:54:31;;;;;;;0.40;0.00;;;;;;;32.13;38.97;100322.11;113142;1198;137511;-76
2021/09/12 10:57:06;;;;;;;0.40;0.00;;;;;;;31.71;40.23;100319.05;112506;1197;101441;-75
2021/09/12 10:59:33;;;;;;;0.40;0.00;;;;;;;31.30;40.68;100315.30;111869;1198;94807;-75
2021/09/12 11:02:00;;;;;;;0.40;0.00;;;;;;;30.74;41.82;100309.91;111722;1198;138726;-75
2021/09/12 11:04:29;;;;;;;0.40;0.00;;;;;;;30.12;42.94;100306.42;111812;1199;94909;-74
2021/09/12 11:07:04;;;;;;;0.40;0.00;;;;;;;29.60;44.04;100306.70;111957;1198;138132;-77
2021/09/12 11:09:32;;;;;;;0.40;0.00;;;;;;;29.13;45.20;100307.46;113409;1197;93981;-77
2021/09/12 11:12:04;;;;;;;0.40;0.00;;;;;;;28.77;46.02;100308.19;113363;1197;93499;-76
2021/09/12 11:14:33;;;;;;;0.40;0.00;;;;;;;28.36;46.58;100312.73;113396;1198;137473;-77
2021/09/12 11:17:11;;;;;;;0.40;0.00;;;;;;;27.87;47.33;100320.73;113737;1197;108389;-77
2021/09/12 11:19:38;;;;;;;0.40;0.00;;;;;;;27.51;49.84;100325.46;113137;1197;137643;-74